createdAt,value
2023-02-01T00:01:10.548Z,3.75
2023-02-01T00:03:37.910Z,3.80
2023-02-01T00:06:05.396Z,3.10
2023-02-01T00:08:32.280Z,3.40
2023-02-01T00:11:06.691Z,3.47
2023-02-01T00:13:36.005Z,3.20
2023-02-01T00:16:15.389Z,2.92
2023-02-01T00:18:42.627Z,3.17
2023-02-01T00:21:12.136Z,3.28
2023-02-01T00:23:39.927Z,2.63
2023-02-01T00:26:12.141Z,3.00
2023-02-01T00:28:39.262Z,3.03
2023-02-01T00:31:06.484Z,3.05
2023-02-01T00:33:34.515Z,3.05
2023-02-01T00:36:05.231Z,2.58
2023-02-01T00:38:34.657Z,2.80
2023-02-01T00:41:08.408Z,3.17
2023-02-01T00:43:35.729Z,2.97
2023-02-01T00:46:03.192Z,3.42
2023-02-01T00:48:30.566Z,3.08
2023-02-01T00:51:10.004Z,3.83
2023-02-01T00:53:37.243Z,3.10
2023-02-01T00:56:06.182Z,3.05
2023-02-01T00:58:34.080Z,3.55
2023-02-01T01:03:59.836Z,2.63
2023-02-01T01:06:31.555Z,2.78
2023-02-01T01:09:02.251Z,2.50
2023-02-01T01:11:33.158Z,2.72
2023-02-01T01:14:01.542Z,2.67
2023-02-01T01:16:31.293Z,2.88
2023-02-01T01:18:58.730Z,2.60
2023-02-01T01:21:26.703Z,2.40
2023-02-01T01:23:54.421Z,2.75
2023-02-01T01:26:28.554Z,2.65
2023-02-01T01:29:00.029Z,2.50
2023-02-01T01:31:28.787Z,2.13
2023-02-01T01:33:58.627Z,2.55
2023-02-01T01:36:27.937Z,2.53
2023-02-01T01:38:55.645Z,3.20
2023-02-01T01:41:31.704Z,2.40
2023-02-01T01:44:08.728Z,2.50
2023-02-01T01:46:39.098Z,2.20
2023-02-01T01:49:25.087Z,2.00
2023-02-01T01:54:33.784Z,2.30
2023-02-01T01:57:12.666Z,2.15
2023-02-01T01:59:44.423Z,2.67
2023-02-01T02:02:11.727Z,2.05
2023-02-01T02:04:39.740Z,2.40
2023-02-01T02:07:15.324Z,2.28
2023-02-01T02:09:54.634Z,2.25
2023-02-01T02:12:26.718Z,2.15
2023-02-01T02:14:54.000Z,1.48
2023-02-01T02:17:59.171Z,2.08
2023-02-01T02:20:50.575Z,2.03
2023-02-01T02:24:01.898Z,2.17
2023-02-01T02:26:59.815Z,2.10
2023-02-01T02:29:57.855Z,1.80
2023-02-01T02:33:04.755Z,1.80
2023-02-01T02:35:48.143Z,2.42
2023-02-01T02:39:03.687Z,2.00
2023-02-01T02:42:20.168Z,1.90
2023-02-01T02:45:15.438Z,2.67
2023-02-01T02:48:11.701Z,2.35
2023-02-01T02:51:04.202Z,2.00
2023-02-01T02:54:12.304Z,2.05
2023-02-01T02:56:59.271Z,2.45
2023-02-01T02:59:49.477Z,2.28
2023-02-01T03:02:36.515Z,2.80
2023-02-01T03:05:03.643Z,3.55
2023-02-01T03:08:01.898Z,2.22
2023-02-01T03:10:37.509Z,2.70
2023-02-01T03:13:13.763Z,2.88
2023-02-01T03:15:48.656Z,2.50
2023-02-01T03:18:28.540Z,3.75
2023-02-01T03:20:59.069Z,1.90
2023-02-01T03:23:35.111Z,2.13
2023-02-01T03:26:04.721Z,1.90
2023-02-01T03:28:35.681Z,2.50
2023-02-01T03:31:03.895Z,2.85
2023-02-01T03:33:32.664Z,2.53
2023-02-01T03:36:15.714Z,1.98
2023-02-01T03:39:26.478Z,2.22
2023-02-01T03:42:44.115Z,2.13
2023-02-01T03:45:22.042Z,2.50
2023-02-01T03:47:56.437Z,2.75
2023-02-01T03:50:27.730Z,2.33
2023-02-01T03:53:10.411Z,3.85
2023-02-01T03:55:38.602Z,2.50
2023-02-01T03:58:14.534Z,2.38
2023-02-01T04:00:45.426Z,2.55
2023-02-01T04:03:12.373Z,2.75
2023-02-01T04:05:39.252Z,2.10
2023-02-01T04:08:08.275Z,2.63
2023-02-01T04:10:35.289Z,2.25
2023-02-01T04:13:02.250Z,2.45
2023-02-01T04:15:29.115Z,3.13
2023-02-01T04:17:56.118Z,2.00
2023-02-01T04:20:23.884Z,2.75
2023-02-01T04:22:50.923Z,2.58
2023-02-01T04:25:18.291Z,2.55
2023-02-01T04:27:47.198Z,2.20
2023-02-01T04:30:15.488Z,2.50
2023-02-01T04:32:42.913Z,2.88
2023-02-01T04:35:10.119Z,2.65
2023-02-01T04:37:36.994Z,2.05
2023-02-01T04:40:04.774Z,2.97
2023-02-01T04:42:31.728Z,2.20
2023-02-01T04:44:58.625Z,1.92
2023-02-01T04:47:25.544Z,2.30
2023-02-01T04:49:52.391Z,2.00
2023-02-01T04:52:19.375Z,2.55
2023-02-01T04:54:46.272Z,2.13
2023-02-01T04:57:14.508Z,1.88
2023-02-01T04:59:41.598Z,2.42
2023-02-01T05:02:08.492Z,3.20
2023-02-01T05:04:35.652Z,2.03
2023-02-01T05:07:02.844Z,2.85
2023-02-01T05:09:29.959Z,3.00
2023-02-01T05:12:15.303Z,2.58
2023-02-01T05:14:42.221Z,2.67
2023-02-01T05:17:09.384Z,3.33
2023-02-01T05:19:36.371Z,2.17
2023-02-01T05:22:03.296Z,2.47
2023-02-01T05:24:30.145Z,2.90
2023-02-01T05:26:57.048Z,2.08
2023-02-01T05:29:23.991Z,2.30
2023-02-01T05:31:51.002Z,2.97
2023-02-01T05:34:18.004Z,1.80
2023-02-01T05:36:44.894Z,2.53
2023-02-01T05:39:11.845Z,2.33
2023-02-01T05:41:39.119Z,2.50
2023-02-01T05:44:08.283Z,3.72
2023-02-01T05:46:37.003Z,2.53
2023-02-01T05:49:05.566Z,2.80
2023-02-01T05:51:33.032Z,2.55
2023-02-01T05:54:02.213Z,2.53
2023-02-01T05:56:29.271Z,2.67
2023-02-01T05:58:56.277Z,2.17
2023-02-01T06:01:23.155Z,2.85
2023-02-01T06:03:51.267Z,2.15
2023-02-01T06:06:19.873Z,2.78
2023-02-01T06:08:46.887Z,3.13
2023-02-01T06:11:30.548Z,3.03
2023-02-01T06:13:59.240Z,2.30
2023-02-01T06:16:27.269Z,2.58
2023-02-01T06:18:54.852Z,2.65
2023-02-01T06:21:25.131Z,2.72
2023-02-01T06:23:54.258Z,2.50
2023-02-01T06:26:21.819Z,3.10
2023-02-01T06:28:49.165Z,2.47
2023-02-01T06:31:16.622Z,2.50
2023-02-01T06:33:44.048Z,3.42
2023-02-01T06:36:13.391Z,3.08
2023-02-01T06:38:50.647Z,3.13
2023-02-01T06:41:17.978Z,2.75
2023-02-01T06:43:46.467Z,3.20
2023-02-01T06:46:14.545Z,3.08
2023-02-01T06:48:41.639Z,3.13
2023-02-01T06:51:25.907Z,3.40
2023-02-01T06:53:53.280Z,2.97
2023-02-01T06:56:21.792Z,3.35
2023-02-01T06:58:49.521Z,2.78
2023-02-01T07:01:17.619Z,2.90
2023-02-01T07:03:48.408Z,2.40
2023-02-01T07:06:15.452Z,3.72
2023-02-01T07:08:42.343Z,2.92
2023-02-01T07:11:16.197Z,3.25
2023-02-01T07:13:43.800Z,2.90
2023-02-01T07:16:15.092Z,3.50
2023-02-01T07:18:42.127Z,2.60
2023-02-01T07:21:09.381Z,2.67
2023-02-01T07:23:36.884Z,3.08
2023-02-01T07:26:06.745Z,4.38
2023-02-01T07:28:36.807Z,3.33
2023-02-01T07:31:19.244Z,2.47
2023-02-01T07:33:46.641Z,2.95
2023-02-01T07:36:17.612Z,3.17
2023-02-01T07:38:50.523Z,2.63
2023-02-01T07:41:18.358Z,2.70
2023-02-01T07:43:48.334Z,3.53
2023-02-01T07:46:16.381Z,3.03
2023-02-01T07:48:46.899Z,3.03
2023-02-01T07:51:22.209Z,3.45
2023-02-01T07:53:49.635Z,2.65
2023-02-01T07:56:33.514Z,2.92
2023-02-01T07:59:01.609Z,2.97
2023-02-01T08:01:30.453Z,3.33
2023-02-01T08:04:03.912Z,3.17
2023-02-01T08:06:34.734Z,2.67
2023-02-01T08:09:02.276Z,3.20
2023-02-01T08:11:29.686Z,3.17
2023-02-01T08:13:56.838Z,3.47
2023-02-01T08:16:25.157Z,3.05
2023-02-01T08:18:53.575Z,2.90
2023-02-01T08:22:10.601Z,2.58
2023-02-01T08:24:58.805Z,3.22
2023-02-01T08:34:39.964Z,3.10
2023-02-01T08:37:46.255Z,3.58
2023-02-01T08:40:35.733Z,2.35
2023-02-01T08:43:03.001Z,2.78
2023-02-01T08:45:31.033Z,3.88
2023-02-01T08:47:58.644Z,2.75
2023-02-01T08:50:31.289Z,2.80
2023-02-01T08:53:18.385Z,3.15
2023-02-01T08:55:50.825Z,2.70
2023-02-01T08:58:18.484Z,2.90
2023-02-01T09:00:45.931Z,2.30
2023-02-01T09:03:13.671Z,2.42
2023-02-01T09:05:49.455Z,2.30
2023-02-01T09:08:17.486Z,2.58
2023-02-01T09:10:48.065Z,2.22
2023-02-01T09:13:15.208Z,2.65
2023-02-01T09:15:42.455Z,2.40
2023-02-01T09:18:09.563Z,2.50
2023-02-01T09:20:38.919Z,2.60
2023-02-01T09:23:08.470Z,2.80
2023-02-01T09:25:38.801Z,2.97
2023-02-01T09:28:15.712Z,2.22
2023-02-01T09:30:42.981Z,2.60
2023-02-01T09:33:10.020Z,2.13
2023-02-01T09:35:37.172Z,2.40
2023-02-01T09:38:04.079Z,2.60
2023-02-01T09:40:31.369Z,2.80
2023-02-01T09:43:14.875Z,2.40
2023-02-01T09:45:53.841Z,3.45
2023-02-01T09:48:36.227Z,2.67
2023-02-01T09:51:12.915Z,2.25
2023-02-01T09:53:45.302Z,2.40
2023-02-01T09:56:24.451Z,3.13
2023-02-01T09:58:51.353Z,2.15
2023-02-01T10:01:23.534Z,2.47
2023-02-01T10:03:56.442Z,2.70
2023-02-01T10:06:42.769Z,2.20
2023-02-01T10:09:33.778Z,2.35
2023-02-01T10:12:54.737Z,2.33
2023-02-01T10:15:56.147Z,2.53
2023-02-01T10:19:24.107Z,2.47
2023-02-01T10:22:10.223Z,2.95
2023-02-01T10:25:05.197Z,2.25
2023-02-01T10:27:43.343Z,2.22
2023-02-01T10:30:32.794Z,2.38
2023-02-01T10:33:17.748Z,3.05
2023-02-01T10:35:47.604Z,2.45
2023-02-01T10:38:31.177Z,2.55
2023-02-01T10:41:11.933Z,3.42
2023-02-01T10:43:40.456Z,2.80
2023-02-01T10:46:09.190Z,4.22
2023-02-01T10:48:37.421Z,3.03
2023-02-01T10:51:17.554Z,2.58
2023-02-01T10:53:58.135Z,3.38
2023-02-01T10:56:29.070Z,2.80
2023-02-01T10:59:07.544Z,2.97
2023-02-01T11:01:50.168Z,2.90
2023-02-01T11:04:33.146Z,2.60
2023-02-01T11:07:25.541Z,2.67
2023-02-01T11:09:57.317Z,3.10
2023-02-01T11:12:31.898Z,2.83
2023-02-01T11:15:23.932Z,2.60
2023-02-01T11:17:53.736Z,2.50
2023-02-01T11:20:44.148Z,2.35
2023-02-01T11:23:27.753Z,2.28
2023-02-01T11:26:25.776Z,2.67
2023-02-01T11:29:06.326Z,2.55
2023-02-01T11:31:36.094Z,2.90
2023-02-01T11:34:21.894Z,2.97
2023-02-01T11:39:35.203Z,2.72
2023-02-01T11:42:16.837Z,3.00
2023-02-01T11:44:48.391Z,2.53
2023-02-01T11:47:40.540Z,3.15
2023-02-01T11:50:19.227Z,2.42
2023-02-01T11:53:19.888Z,3.10
2023-02-01T11:56:38.679Z,2.42
2023-02-01T11:59:57.332Z,2.63
2023-02-01T12:03:15.152Z,2.08
2023-02-01T12:06:34.014Z,2.40
2023-02-01T12:09:47.156Z,2.22
2023-02-01T12:12:35.277Z,2.97
2023-02-01T12:15:17.194Z,3.03
2023-02-01T12:18:29.079Z,3.17
2023-02-01T12:21:57.891Z,3.85
2023-02-01T12:24:46.117Z,3.13
2023-02-01T12:27:28.741Z,2.80
2023-02-01T12:30:33.903Z,2.75
2023-02-01T12:33:53.468Z,2.58
2023-02-01T12:36:42.428Z,3.72
2023-02-01T12:39:41.764Z,2.60
2023-02-01T12:42:29.935Z,3.60
2023-02-01T12:45:19.668Z,2.40
2023-02-01T12:47:58.186Z,2.40
2023-02-01T12:50:52.755Z,3.03
2023-02-01T12:53:57.392Z,3.00
2023-02-01T12:56:49.775Z,2.22
2023-02-01T12:59:30.109Z,2.88
2023-02-01T13:02:45.467Z,2.20
2023-02-01T13:05:32.322Z,2.00
2023-02-01T13:08:11.642Z,2.10
2023-02-01T13:11:01.416Z,2.05
2023-02-01T13:14:06.052Z,2.50
2023-02-01T13:17:30.127Z,2.60
2023-02-01T13:20:06.237Z,3.15
2023-02-01T13:22:47.000Z,2.80
2023-02-01T13:25:32.888Z,3.13
2023-02-01T13:28:11.298Z,2.42
2023-02-01T13:31:25.009Z,2.35
2023-02-01T13:34:39.478Z,2.35
2023-02-01T13:37:28.029Z,2.30
2023-02-01T13:40:30.796Z,2.65
2023-02-01T13:43:06.030Z,2.33
2023-02-01T13:48:20.548Z,1.85
2023-02-01T13:50:55.739Z,2.08
2023-02-01T13:53:48.841Z,2.30
2023-02-01T13:56:22.335Z,2.22
2023-02-01T13:58:52.416Z,2.60
2023-02-01T14:01:22.578Z,1.77
2023-02-01T14:04:01.040Z,2.35
2023-02-01T14:06:28.452Z,2.17
2023-02-01T14:09:14.132Z,2.65
2023-02-01T14:12:42.413Z,1.70
2023-02-01T14:15:39.026Z,2.20
2023-02-01T14:18:42.112Z,2.13
2023-02-01T14:21:24.577Z,2.10
2023-02-01T14:23:54.631Z,2.42
2023-02-01T14:26:27.582Z,1.50
2023-02-01T14:29:21.257Z,2.38
2023-02-01T14:32:08.420Z,2.35
2023-02-01T14:34:53.551Z,1.83
2023-02-01T14:38:03.575Z,1.80
2023-02-01T14:40:32.305Z,2.00
2023-02-01T14:42:59.290Z,2.10
2023-02-01T14:45:29.438Z,2.13
2023-02-01T14:48:06.331Z,2.10
2023-02-01T14:50:33.778Z,2.08
2023-02-01T14:53:09.494Z,2.00
2023-02-01T14:55:51.866Z,2.38
2023-02-01T14:58:52.222Z,2.20
2023-02-01T15:01:29.814Z,2.00
2023-02-01T15:04:22.441Z,2.00
2023-02-01T15:07:08.039Z,2.25
2023-02-01T15:12:21.478Z,2.35
2023-02-01T15:15:11.197Z,2.50
2023-02-01T15:17:38.780Z,2.85
2023-02-01T15:20:50.922Z,2.15
2023-02-01T15:23:29.225Z,2.00
2023-02-01T15:25:56.699Z,2.13
2023-02-01T15:28:24.772Z,2.00
2023-02-01T15:31:05.253Z,2.65
2023-02-01T15:33:34.681Z,2.40
2023-02-01T15:36:21.399Z,2.20
2023-02-01T15:38:48.411Z,2.50
2023-02-01T15:41:31.412Z,2.38
2023-02-01T15:43:58.581Z,2.50
2023-02-01T15:46:40.800Z,2.55
2023-02-01T15:49:39.315Z,2.65
2023-02-01T15:52:26.705Z,2.22
2023-02-01T15:54:59.332Z,2.78
2023-02-01T15:57:34.598Z,2.72
2023-02-01T16:02:53.318Z,2.50
2023-02-01T16:05:30.221Z,2.50
2023-02-01T16:08:24.386Z,2.10
2023-02-01T16:11:00.258Z,2.45
2023-02-01T16:13:27.351Z,1.90
2023-02-01T16:15:54.428Z,2.20
2023-02-01T16:18:21.399Z,2.28
2023-02-01T16:20:49.365Z,2.67
2023-02-01T16:23:16.416Z,3.38
2023-02-01T16:25:43.423Z,3.45
2023-02-01T16:28:11.172Z,3.03
2023-02-01T16:30:38.478Z,2.83
2023-02-01T16:33:12.589Z,3.20
2023-02-01T16:35:39.713Z,2.88
2023-02-01T16:38:14.015Z,3.08
2023-02-01T16:40:44.219Z,2.75
2023-02-01T16:43:20.948Z,2.97
2023-02-01T16:45:50.695Z,3.75
2023-02-01T16:48:23.406Z,3.33
2023-02-01T16:51:09.633Z,3.65
2023-02-01T16:53:52.113Z,3.63
2023-02-01T16:56:30.532Z,4.13
2023-02-01T16:58:58.634Z,3.28
2023-02-01T17:01:26.816Z,3.67
2023-02-01T17:03:53.989Z,4.32
2023-02-01T17:06:25.669Z,4.78
2023-02-01T17:08:56.419Z,2.67
2023-02-01T17:11:23.391Z,2.28
2023-02-01T17:13:50.688Z,1.98
2023-02-01T17:16:27.807Z,1.48
2023-02-01T17:19:05.988Z,1.40
2023-02-01T17:21:43.467Z,1.80
2023-02-01T17:24:16.043Z,1.75
2023-02-01T17:26:44.619Z,1.60
2023-02-01T17:29:12.636Z,1.38
2023-02-01T17:31:44.781Z,1.30
2023-02-01T17:34:15.565Z,1.80
2023-02-01T17:36:44.073Z,1.13
2023-02-01T17:39:11.745Z,1.65
2023-02-01T17:41:38.674Z,0.95
2023-02-01T17:44:05.951Z,0.93
2023-02-01T17:46:33.002Z,1.00
2023-02-01T17:49:01.329Z,1.23
2023-02-01T17:51:30.831Z,1.60
2023-02-01T17:53:57.688Z,1.65
2023-02-01T17:56:25.794Z,2.03
2023-02-01T17:58:52.767Z,1.70
2023-02-01T18:01:46.133Z,2.20
2023-02-01T18:04:18.804Z,1.02
2023-02-01T18:06:46.443Z,1.40
2023-02-01T18:09:13.399Z,1.40
2023-02-01T18:11:41.404Z,1.40
2023-02-01T18:14:13.354Z,1.58
2023-02-01T18:16:40.311Z,1.90
2023-02-01T18:19:07.448Z,1.50
2023-02-01T18:21:45.071Z,1.83
2023-02-01T18:24:17.169Z,1.40
2023-02-01T18:26:44.204Z,1.65
2023-02-01T18:29:11.212Z,2.17
2023-02-01T18:31:49.477Z,1.55
2023-02-01T18:34:22.244Z,1.58
2023-02-01T18:36:51.291Z,2.00
2023-02-01T18:39:18.598Z,1.75
2023-02-01T18:41:48.972Z,1.48
2023-02-01T18:44:17.610Z,1.42
2023-02-01T18:46:44.591Z,1.50
2023-02-01T18:49:18.073Z,1.88
2023-02-01T18:52:13.486Z,1.70
2023-02-01T18:54:57.587Z,1.70
2023-02-01T18:57:25.812Z,1.73
2023-02-01T18:59:52.943Z,1.77
2023-02-01T19:02:19.982Z,1.40
2023-02-01T19:04:46.947Z,1.10
2023-02-01T19:07:14.184Z,1.35
2023-02-01T19:09:41.184Z,2.05
2023-02-01T19:12:08.349Z,1.13
2023-02-01T19:14:35.279Z,2.15
2023-02-01T19:17:02.234Z,1.63
2023-02-01T19:19:29.191Z,1.70
2023-02-01T19:22:12.210Z,1.55
2023-02-01T19:24:40.240Z,1.92
2023-02-01T19:27:09.002Z,1.60
2023-02-01T19:29:40.788Z,1.50
2023-02-01T19:32:09.888Z,1.48
2023-02-01T19:34:39.131Z,1.70
2023-02-01T19:37:07.458Z,1.90
2023-02-01T19:39:34.782Z,1.95
2023-02-01T19:42:03.549Z,1.80
2023-02-01T19:44:32.841Z,1.40
2023-02-01T19:47:00.673Z,1.25
2023-02-01T19:49:28.157Z,1.25
2023-02-01T19:51:55.297Z,1.60
2023-02-01T19:54:22.950Z,1.20
2023-02-01T19:56:52.470Z,1.42
2023-02-01T19:59:22.883Z,1.17
2023-02-01T20:01:50.826Z,1.48
2023-02-01T20:04:19.046Z,1.17
2023-02-01T20:06:49.191Z,1.90
2023-02-01T20:09:26.365Z,1.05
2023-02-01T20:11:54.306Z,1.17
2023-02-01T20:14:27.267Z,1.33
2023-02-01T20:16:54.589Z,1.10
2023-02-01T20:19:22.377Z,1.20
2023-02-01T20:21:53.093Z,1.10
2023-02-01T20:24:20.981Z,1.48
2023-02-01T20:26:50.078Z,1.63
2023-02-01T20:29:29.512Z,1.65
2023-02-01T20:32:08.872Z,1.50
2023-02-01T20:34:37.351Z,1.60
2023-02-01T20:37:13.321Z,1.63
2023-02-01T20:39:45.339Z,1.17
2023-02-01T20:42:13.661Z,1.48
2023-02-01T20:44:41.091Z,1.15
2023-02-01T20:47:08.456Z,1.05
2023-02-01T20:49:38.978Z,1.92
2023-02-01T20:52:13.018Z,1.40
2023-02-01T20:54:40.338Z,1.80
2023-02-01T20:57:07.462Z,1.58
2023-02-01T20:59:36.136Z,3.17
2023-02-01T21:02:06.409Z,1.60
2023-02-01T21:04:34.248Z,1.50
2023-02-01T21:07:02.867Z,2.03
2023-02-01T21:09:30.293Z,1.75
2023-02-01T21:11:57.410Z,1.25
2023-02-01T21:14:24.622Z,1.90
2023-02-01T21:16:51.872Z,1.70
2023-02-01T21:19:19.419Z,1.60
2023-02-01T21:21:46.496Z,1.58
2023-02-01T21:24:13.475Z,1.38
2023-02-01T21:26:43.081Z,1.67
2023-02-01T21:29:13.878Z,1.90
2023-02-01T21:31:42.913Z,1.42
2023-02-01T21:34:10.568Z,1.58
2023-02-01T21:36:37.620Z,1.80
2023-02-01T21:39:07.664Z,1.95
2023-02-01T21:41:54.799Z,1.58
2023-02-01T21:44:22.817Z,1.55
2023-02-01T21:46:50.622Z,2.30
2023-02-01T21:49:17.777Z,1.38
2023-02-01T21:51:44.977Z,1.58
2023-02-01T21:54:12.782Z,1.92
2023-02-01T21:56:41.128Z,1.73
2023-02-01T21:59:10.189Z,1.30
2023-02-01T22:01:44.017Z,1.60
2023-02-01T22:04:11.455Z,1.90
2023-02-01T22:06:44.308Z,1.50
2023-02-01T22:09:23.517Z,1.50
2023-02-01T22:11:55.117Z,2.20
2023-02-01T22:14:23.102Z,1.67
2023-02-01T22:16:50.769Z,3.15
2023-02-01T22:19:18.506Z,2.10
2023-02-01T22:21:48.042Z,1.70
2023-02-01T22:24:20.031Z,1.95
2023-02-01T22:27:14.325Z,2.42
2023-02-01T22:29:45.444Z,2.10
2023-02-01T22:32:14.007Z,2.13
2023-02-01T22:35:03.471Z,2.45
2023-02-01T22:37:37.473Z,2.50
2023-02-01T22:40:05.708Z,2.17
2023-02-01T22:42:32.674Z,2.45
2023-02-01T22:45:01.394Z,2.10
2023-02-01T22:47:28.757Z,2.50
2023-02-01T22:49:55.841Z,2.05
2023-02-01T22:52:22.821Z,2.15
2023-02-01T22:54:49.747Z,2.25
2023-02-01T22:57:16.610Z,2.78
2023-02-01T22:59:43.453Z,2.42
2023-02-01T23:02:10.416Z,2.50
2023-02-01T23:04:37.333Z,2.53
2023-02-01T23:07:04.377Z,2.53
2023-02-01T23:09:31.338Z,2.30
2023-02-01T23:11:58.584Z,2.70
2023-02-01T23:14:25.763Z,2.58
2023-02-01T23:16:52.741Z,2.20
2023-02-01T23:19:22.778Z,2.08
2023-02-01T23:21:49.844Z,1.95
2023-02-01T23:24:17.180Z,2.15
2023-02-01T23:26:44.139Z,2.03
2023-02-01T23:29:18.618Z,1.73
2023-02-01T23:31:45.729Z,2.45
2023-02-01T23:34:13.188Z,1.60
2023-02-01T23:36:40.251Z,2.30
2023-02-01T23:39:07.142Z,1.75
2023-02-01T23:41:34.059Z,1.70
2023-02-01T23:44:07.125Z,1.45
2023-02-01T23:46:49.793Z,1.50
2023-02-01T23:49:18.313Z,1.77
2023-02-01T23:51:47.572Z,2.63
2023-02-01T23:54:17.490Z,1.98
2023-02-01T23:56:46.187Z,2.25
2023-02-01T23:59:20.297Z,1.70
